CYVC

La Ronge Airport

La Ronge, Saskatchewan, Canada
METAR CYVC 280000Z 32013G18KT 15SM FEW080 BKN250 21/04 A2993 RMK CU2CI3 SLP143 DENSITY ALT 2300FT
Observed Flight Rules
May-28 @ 00:00 UTC (an hour ago) Visual Flight Rules
Wind Visibility Clouds
320° at 13 knots
 Gusting to 18 knots
15 miles
  • Few at 8,000' AGL
  • Broken at 25,000' AGL
Temperatures Readings
Current 21°C / 70°F
Dewpoint 4°C / 39°F
Humidity 33%
Altimeter 29.93" Hg
Pressure 1014.3 hPa
Elevation 379
METAR CYVC 280000Z 32013G18KT 15SM FEW080 BKN250 21/04 A2993 RMK CU2CI3 SLP143 DENSITY ALT 2300FT
Observed Flight Rules
May-28 @ 00:00 UTC
(an hour ago)
VFR
Wind Visibility
320° at 13 knots
 Gusting to 18 knots
15 miles
Clouds
  • Few at 8,000' AGL
  • Broken at 25,000' AGL
Temperature Dewpoint
21°C / 70°F 4°C / 39°F
Humidity Altimeter Pressure
33% 29.93" Hg 1014.3 hPa